sensor_id;sensor_type;location;lat;lon;timestamp;P1;durP1;ratioP1;P2;durP2;ratioP2
67597;SDS011;62026;39.230;9.122;2022-09-29T00:00:15;5.55;;;2.33;;
67597;SDS011;62026;39.230;9.122;2022-09-29T00:02:41;8.02;;;2.90;;
67597;SDS011;62026;39.230;9.122;2022-09-29T00:05:07;5.15;;;2.13;;
67597;SDS011;62026;39.230;9.122;2022-09-29T00:07:33;8.20;;;2.53;;
67597;SDS011;62026;39.230;9.122;2022-09-29T00:09:59;6.93;;;2.47;;
67597;SDS011;62026;39.230;9.122;2022-09-29T00:12:25;9.48;;;2.35;;
67597;SDS011;62026;39.230;9.122;2022-09-29T00:14:52;7.72;;;2.28;;
67597;SDS011;62026;39.230;9.122;2022-09-29T00:17:18;5.90;;;2.15;;
67597;SDS011;62026;39.230;9.122;2022-09-29T00:19:44;5.32;;;2.22;;
67597;SDS011;62026;39.230;9.122;2022-09-29T00:22:10;7.30;;;2.58;;
67597;SDS011;62026;39.230;9.122;2022-09-29T00:24:36;5.93;;;2.30;;
67597;SDS011;62026;39.230;9.122;2022-09-29T00:27:02;7.50;;;2.63;;
67597;SDS011;62026;39.230;9.122;2022-09-29T00:29:28;4.82;;;2.17;;
67597;SDS011;62026;39.230;9.122;2022-09-29T00:31:55;8.57;;;2.55;;
67597;SDS011;62026;39.230;9.122;2022-09-29T00:34:21;3.60;;;2.03;;
67597;SDS011;62026;39.230;9.122;2022-09-29T00:36:47;6.57;;;2.42;;
67597;SDS011;62026;39.230;9.122;2022-09-29T00:39:13;8.15;;;2.50;;
67597;SDS011;62026;39.230;9.122;2022-09-29T00:41:40;5.95;;;2.25;;
67597;SDS011;62026;39.230;9.122;2022-09-29T00:49:18;7.72;;;2.28;;
67597;SDS011;62026;39.230;9.122;2022-09-29T00:52:19;5.78;;;2.35;;
67597;SDS011;62026;39.230;9.122;2022-09-29T00:55:03;6.72;;;2.20;;
67597;SDS011;62026;39.230;9.122;2022-09-29T00:57:45;6.60;;;1.98;;
67597;SDS011;62026;39.230;9.122;2022-09-29T01:00:21;7.55;;;2.08;;
67597;SDS011;62026;39.230;9.122;2022-09-29T01:02:49;6.88;;;1.58;;
67597;SDS011;62026;39.230;9.122;2022-09-29T01:05:34;5.75;;;1.80;;
67597;SDS011;62026;39.230;9.122;2022-09-29T01:08:15;8.43;;;1.60;;
67597;SDS011;62026;39.230;9.122;2022-09-29T01:10:52;4.72;;;1.50;;
67597;SDS011;62026;39.230;9.122;2022-09-29T01:13:18;7.47;;;1.70;;
67597;SDS011;62026;39.230;9.122;2022-09-29T01:15:46;6.70;;;1.52;;
67597;SDS011;62026;39.230;9.122;2022-09-29T01:18:12;5.00;;;1.55;;
67597;SDS011;62026;39.230;9.122;2022-09-29T01:20:50;5.53;;;1.60;;
67597;SDS011;62026;39.230;9.122;2022-09-29T01:23:50;3.97;;;1.70;;
67597;SDS011;62026;39.230;9.122;2022-09-29T01:26:53;5.88;;;2.05;;
67597;SDS011;62026;39.230;9.122;2022-09-29T01:44:05;11.43;;;4.70;;
67597;SDS011;62026;39.230;9.122;2022-09-29T01:46:49;6.70;;;2.65;;
67597;SDS011;62026;39.230;9.122;2022-09-29T01:49:36;7.03;;;2.95;;
67597;SDS011;62026;39.230;9.122;2022-09-29T01:52:10;6.13;;;3.53;;
67597;SDS011;62026;39.230;9.122;2022-09-29T01:54:49;11.45;;;3.53;;
67597;SDS011;62026;39.230;9.122;2022-09-29T01:57:30;8.57;;;3.35;;
67597;SDS011;62026;39.230;9.122;2022-09-29T02:00:08;7.63;;;3.47;;
67597;SDS011;62026;39.230;9.122;2022-09-29T02:05:24;10.60;;;3.78;;
67597;SDS011;62026;39.230;9.122;2022-09-29T02:08:03;9.35;;;3.22;;
67597;SDS011;62026;39.230;9.122;2022-09-29T02:10:39;8.32;;;2.88;;
67597;SDS011;62026;39.230;9.122;2022-09-29T02:13:25;7.60;;;2.72;;
67597;SDS011;62026;39.230;9.122;2022-09-29T02:15:57;5.65;;;2.65;;
67597;SDS011;62026;39.230;9.122;2022-09-29T02:18:28;10.57;;;3.00;;
67597;SDS011;62026;39.230;9.122;2022-09-29T02:21:04;4.82;;;2.40;;
67597;SDS011;62026;39.230;9.122;2022-09-29T02:23:30;5.68;;;2.40;;
67597;SDS011;62026;39.230;9.122;2022-09-29T02:25:56;5.85;;;2.38;;
67597;SDS011;62026;39.230;9.122;2022-09-29T02:28:24;6.78;;;2.45;;
67597;SDS011;62026;39.230;9.122;2022-09-29T02:30:51;5.22;;;1.83;;
67597;SDS011;62026;39.230;9.122;2022-09-29T02:33:18;6.57;;;2.05;;
67597;SDS011;62026;39.230;9.122;2022-09-29T02:35:54;5.65;;;2.22;;
67597;SDS011;62026;39.230;9.122;2022-09-29T02:38:29;7.65;;;2.10;;
67597;SDS011;62026;39.230;9.122;2022-09-29T02:41:44;6.40;;;2.08;;
67597;SDS011;62026;39.230;9.122;2022-09-29T02:44:36;7.68;;;1.90;;
67597;SDS011;62026;39.230;9.122;2022-09-29T02:47:30;6.88;;;2.08;;
67597;SDS011;62026;39.230;9.122;2022-09-29T02:59:09;7.43;;;1.80;;
67597;SDS011;62026;39.230;9.122;2022-09-29T03:01:47;5.40;;;2.05;;
67597;SDS011;62026;39.230;9.122;2022-09-29T03:04:17;6.28;;;1.83;;
67597;SDS011;62026;39.230;9.122;2022-09-29T03:06:46;3.78;;;1.52;;
67597;SDS011;62026;39.230;9.122;2022-09-29T03:09:15;9.45;;;1.80;;
67597;SDS011;62026;39.230;9.122;2022-09-29T03:11:42;5.35;;;1.77;;
67597;SDS011;62026;39.230;9.122;2022-09-29T03:14:09;6.03;;;1.70;;
67597;SDS011;62026;39.230;9.122;2022-09-29T03:16:36;4.57;;;1.83;;
67597;SDS011;62026;39.230;9.122;2022-09-29T03:19:02;6.57;;;1.88;;
67597;SDS011;62026;39.230;9.122;2022-09-29T03:21:29;5.43;;;2.17;;
67597;SDS011;62026;39.230;9.122;2022-09-29T03:23:56;6.25;;;2.08;;
67597;SDS011;62026;39.230;9.122;2022-09-29T03:26:23;6.28;;;1.70;;
67597;SDS011;62026;39.230;9.122;2022-09-29T03:28:50;7.13;;;2.05;;
67597;SDS011;62026;39.230;9.122;2022-09-29T03:31:17;8.25;;;1.80;;
67597;SDS011;62026;39.230;9.122;2022-09-29T03:33:43;4.82;;;1.80;;
67597;SDS011;62026;39.230;9.122;2022-09-29T03:36:10;8.18;;;2.40;;
67597;SDS011;62026;39.230;9.122;2022-09-29T03:38:36;6.45;;;2.03;;
67597;SDS011;62026;39.230;9.122;2022-09-29T03:41:04;5.93;;;1.90;;
67597;SDS011;62026;39.230;9.122;2022-09-29T03:43:31;6.68;;;1.58;;
67597;SDS011;62026;39.230;9.122;2022-09-29T03:45:57;5.85;;;1.90;;
67597;SDS011;62026;39.230;9.122;2022-09-29T03:48:24;5.88;;;1.67;;
67597;SDS011;62026;39.230;9.122;2022-09-29T03:50:54;8.07;;;1.90;;
67597;SDS011;62026;39.230;9.122;2022-09-29T03:53:21;7.15;;;1.73;;
67597;SDS011;62026;39.230;9.122;2022-09-29T03:55:47;7.72;;;1.98;;
67597;SDS011;62026;39.230;9.122;2022-09-29T03:58:15;6.18;;;2.20;;
67597;SDS011;62026;39.230;9.122;2022-09-29T04:00:42;7.03;;;1.80;;
67597;SDS011;62026;39.230;9.122;2022-09-29T04:03:09;8.93;;;2.42;;
67597;SDS011;62026;39.230;9.122;2022-09-29T04:05:35;9.57;;;2.33;;
67597;SDS011;62026;39.230;9.122;2022-09-29T04:08:06;8.25;;;2.10;;
67597;SDS011;62026;39.230;9.122;2022-09-29T04:10:34;11.15;;;1.92;;
67597;SDS011;62026;39.230;9.122;2022-09-29T04:13:01;7.10;;;1.98;;
67597;SDS011;62026;39.230;9.122;2022-09-29T04:15:27;7.38;;;2.00;;
67597;SDS011;62026;39.230;9.122;2022-09-29T04:17:53;9.43;;;2.20;;
67597;SDS011;62026;39.230;9.122;2022-09-29T04:20:20;5.40;;;1.80;;
67597;SDS011;62026;39.230;9.122;2022-09-29T04:22:46;5.55;;;1.90;;
67597;SDS011;62026;39.230;9.122;2022-09-29T04:25:12;6.03;;;1.90;;
67597;SDS011;62026;39.230;9.122;2022-09-29T04:27:38;7.32;;;1.80;;
67597;SDS011;62026;39.230;9.122;2022-09-29T04:30:05;5.20;;;1.77;;
67597;SDS011;62026;39.230;9.122;2022-09-29T04:32:32;6.20;;;1.65;;
67597;SDS011;62026;39.230;9.122;2022-09-29T04:34:58;9.75;;;1.77;;
67597;SDS011;62026;39.230;9.122;2022-09-29T04:37:24;4.80;;;1.63;;
67597;SDS011;62026;39.230;9.122;2022-09-29T04:39:51;10.13;;;1.60;;
67597;SDS011;62026;39.230;9.122;2022-09-29T04:42:18;6.43;;;1.65;;
67597;SDS011;62026;39.230;9.122;2022-09-29T04:44:45;3.85;;;1.35;;
67597;SDS011;62026;39.230;9.122;2022-09-29T04:47:11;8.40;;;1.60;;
67597;SDS011;62026;39.230;9.122;2022-09-29T04:49:38;4.03;;;1.40;;
67597;SDS011;62026;39.230;9.122;2022-09-29T04:52:04;9.02;;;1.67;;
67597;SDS011;62026;39.230;9.122;2022-09-29T04:54:31;8.70;;;1.70;;
67597;SDS011;62026;39.230;9.122;2022-09-29T04:56:59;6.07;;;1.70;;
67597;SDS011;62026;39.230;9.122;2022-09-29T04:59:26;9.32;;;1.85;;
67597;SDS011;62026;39.230;9.122;2022-09-29T05:01:53;4.00;;;1.58;;
67597;SDS011;62026;39.230;9.122;2022-09-29T05:04:19;5.60;;;1.45;;
67597;SDS011;62026;39.230;9.122;2022-09-29T05:06:45;8.73;;;2.45;;
67597;SDS011;62026;39.230;9.122;2022-09-29T05:09:12;9.85;;;2.25;;
67597;SDS011;62026;39.230;9.122;2022-09-29T05:11:38;5.85;;;1.70;;
67597;SDS011;62026;39.230;9.122;2022-09-29T05:14:04;7.45;;;1.67;;
67597;SDS011;62026;39.230;9.122;2022-09-29T05:16:31;6.72;;;1.63;;
67597;SDS011;62026;39.230;9.122;2022-09-29T05:18:57;7.80;;;1.92;;
67597;SDS011;62026;39.230;9.122;2022-09-29T05:21:23;4.40;;;1.67;;
67597;SDS011;62026;39.230;9.122;2022-09-29T05:23:50;5.78;;;1.65;;
67597;SDS011;62026;39.230;9.122;2022-09-29T05:26:16;6.57;;;1.70;;
67597;SDS011;62026;39.230;9.122;2022-09-29T05:28:43;5.22;;;1.70;;
67597;SDS011;62026;39.230;9.122;2022-09-29T05:31:11;9.10;;;1.60;;
67597;SDS011;62026;39.230;9.122;2022-09-29T05:33:39;11.68;;;1.90;;
67597;SDS011;62026;39.230;9.122;2022-09-29T05:36:07;10.35;;;1.70;;
67597;SDS011;62026;39.230;9.122;2022-09-29T05:38:36;5.78;;;1.45;;
67597;SDS011;62026;39.230;9.122;2022-09-29T05:41:08;7.60;;;1.65;;
67597;SDS011;62026;39.230;9.122;2022-09-29T05:43:36;5.07;;;1.40;;
67597;SDS011;62026;39.230;9.122;2022-09-29T05:46:04;6.35;;;1.52;;
67597;SDS011;62026;39.230;9.122;2022-09-29T05:48:33;6.85;;;1.63;;
67597;SDS011;62026;39.230;9.122;2022-09-29T05:51:05;8.43;;;2.20;;
67597;SDS011;62026;39.230;9.122;2022-09-29T05:53:34;5.88;;;1.90;;
67597;SDS011;62026;39.230;9.122;2022-09-29T05:56:04;7.32;;;2.28;;
67597;SDS011;62026;39.230;9.122;2022-09-29T05:58:33;11.10;;;2.15;;
67597;SDS011;62026;39.230;9.122;2022-09-29T06:01:11;4.75;;;1.50;;
67597;SDS011;62026;39.230;9.122;2022-09-29T06:06:10;13.65;;;2.85;;
67597;SDS011;62026;39.230;9.122;2022-09-29T06:08:39;12.02;;;3.65;;
67597;SDS011;62026;39.230;9.122;2022-09-29T06:11:08;8.30;;;2.95;;
67597;SDS011;62026;39.230;9.122;2022-09-29T06:13:38;14.20;;;3.17;;
67597;SDS011;62026;39.230;9.122;2022-09-29T06:16:07;8.82;;;2.90;;
67597;SDS011;62026;39.230;9.122;2022-09-29T06:18:35;13.77;;;3.95;;
67597;SDS011;62026;39.230;9.122;2022-09-29T06:21:05;9.60;;;4.40;;
67597;SDS011;62026;39.230;9.122;2022-09-29T06:23:38;15.30;;;4.47;;
67597;SDS011;62026;39.230;9.122;2022-09-29T06:26:06;18.50;;;4.88;;
67597;SDS011;62026;39.230;9.122;2022-09-29T06:28:35;15.07;;;5.18;;
67597;SDS011;62026;39.230;9.122;2022-09-29T06:31:02;10.55;;;4.50;;
67597;SDS011;62026;39.230;9.122;2022-09-29T06:33:36;10.77;;;4.38;;
67597;SDS011;62026;39.230;9.122;2022-09-29T06:36:04;12.25;;;3.75;;
67597;SDS011;62026;39.230;9.122;2022-09-29T06:39:10;8.90;;;3.05;;
67597;SDS011;62026;39.230;9.122;2022-09-29T06:41:38;14.40;;;3.42;;
67597;SDS011;62026;39.230;9.122;2022-09-29T06:44:07;15.30;;;2.95;;
67597;SDS011;62026;39.230;9.122;2022-09-29T06:46:33;14.27;;;3.33;;
67597;SDS011;62026;39.230;9.122;2022-09-29T06:48:59;12.35;;;3.47;;
67597;SDS011;62026;39.230;9.122;2022-09-29T06:51:26;9.45;;;3.45;;
67597;SDS011;62026;39.230;9.122;2022-09-29T06:53:52;12.18;;;3.38;;
67597;SDS011;62026;39.230;9.122;2022-09-29T06:56:18;5.50;;;2.25;;
67597;SDS011;62026;39.230;9.122;2022-09-29T06:58:45;5.72;;;2.58;;
67597;SDS011;62026;39.230;9.122;2022-09-29T07:01:11;10.65;;;2.65;;
67597;SDS011;62026;39.230;9.122;2022-09-29T07:03:38;10.38;;;2.67;;
67597;SDS011;62026;39.230;9.122;2022-09-29T07:06:05;10.65;;;1.95;;
67597;SDS011;62026;39.230;9.122;2022-09-29T07:08:34;10.07;;;2.03;;
67597;SDS011;62026;39.230;9.122;2022-09-29T07:11:06;9.32;;;1.90;;
67597;SDS011;62026;39.230;9.122;2022-09-29T07:13:34;5.85;;;1.83;;
67597;SDS011;62026;39.230;9.122;2022-09-29T07:16:04;10.35;;;2.00;;
67597;SDS011;62026;39.230;9.122;2022-09-29T07:18:36;9.13;;;1.75;;
67597;SDS011;62026;39.230;9.122;2022-09-29T07:21:09;13.73;;;2.33;;
67597;SDS011;62026;39.230;9.122;2022-09-29T07:23:43;13.48;;;2.15;;
67597;SDS011;62026;39.230;9.122;2022-09-29T07:26:11;9.73;;;1.90;;
67597;SDS011;62026;39.230;9.122;2022-09-29T07:28:38;12.32;;;1.90;;
67597;SDS011;62026;39.230;9.122;2022-09-29T07:34:17;6.72;;;1.60;;
67597;SDS011;62026;39.230;9.122;2022-09-29T07:36:44;9.00;;;1.58;;
67597;SDS011;62026;39.230;9.122;2022-09-29T07:39:10;14.63;;;2.15;;
67597;SDS011;62026;39.230;9.122;2022-09-29T07:41:36;7.80;;;1.73;;
67597;SDS011;62026;39.230;9.122;2022-09-29T07:44:02;6.78;;;1.77;;
67597;SDS011;62026;39.230;9.122;2022-09-29T07:46:28;8.93;;;1.73;;
67597;SDS011;62026;39.230;9.122;2022-09-29T07:48:54;5.88;;;1.45;;
67597;SDS011;62026;39.230;9.122;2022-09-29T07:51:20;11.30;;;1.27;;
67597;SDS011;62026;39.230;9.122;2022-09-29T07:53:46;6.85;;;1.50;;
67597;SDS011;62026;39.230;9.122;2022-09-29T07:56:14;7.82;;;1.38;;
67597;SDS011;62026;39.230;9.122;2022-09-29T07:58:43;6.03;;;1.25;;
67597;SDS011;62026;39.230;9.122;2022-09-29T08:01:14;8.25;;;1.20;;
67597;SDS011;62026;39.230;9.122;2022-09-29T08:03:43;6.10;;;1.15;;
67597;SDS011;62026;39.230;9.122;2022-09-29T08:06:15;3.70;;;0.90;;
67597;SDS011;62026;39.230;9.122;2022-09-29T08:08:42;4.85;;;1.20;;
67597;SDS011;62026;39.230;9.122;2022-09-29T08:11:09;4.97;;;1.10;;
67597;SDS011;62026;39.230;9.122;2022-09-29T08:13:40;9.55;;;1.30;;
67597;SDS011;62026;39.230;9.122;2022-09-29T08:16:09;9.18;;;1.45;;
67597;SDS011;62026;39.230;9.122;2022-09-29T08:18:38;10.52;;;1.38;;
67597;SDS011;62026;39.230;9.122;2022-09-29T08:21:05;13.88;;;1.83;;
67597;SDS011;62026;39.230;9.122;2022-09-29T08:23:36;7.95;;;1.23;;
67597;SDS011;62026;39.230;9.122;2022-09-29T08:28:33;7.50;;;1.30;;
67597;SDS011;62026;39.230;9.122;2022-09-29T08:31:05;7.63;;;1.20;;
67597;SDS011;62026;39.230;9.122;2022-09-29T08:33:34;6.13;;;1.08;;
67597;SDS011;62026;39.230;9.122;2022-09-29T08:36:01;5.25;;;1.15;;
67597;SDS011;62026;39.230;9.122;2022-09-29T08:38:32;9.05;;;1.23;;
67597;SDS011;62026;39.230;9.122;2022-09-29T08:41:01;8.15;;;1.63;;
67597;SDS011;62026;39.230;9.122;2022-09-29T08:43:36;3.55;;;1.20;;
67597;SDS011;62026;39.230;9.122;2022-09-29T08:46:07;5.45;;;0.85;;
67597;SDS011;62026;39.230;9.122;2022-09-29T08:48:52;3.17;;;0.70;;
67597;SDS011;62026;39.230;9.122;2022-09-29T08:54:01;2.58;;;0.50;;
67597;SDS011;62026;39.230;9.122;2022-09-29T08:56:37;7.55;;;1.23;;
67597;SDS011;62026;39.230;9.122;2022-09-29T08:59:03;11.43;;;1.48;;
67597;SDS011;62026;39.230;9.122;2022-09-29T09:01:34;4.57;;;0.93;;
67597;SDS011;62026;39.230;9.122;2022-09-29T09:12:48;3.17;;;0.70;;
67597;SDS011;62026;39.230;9.122;2022-09-29T09:22:20;5.50;;;0.82;;
67597;SDS011;62026;39.230;9.122;2022-09-29T09:25:32;5.13;;;0.75;;
67597;SDS011;62026;39.230;9.122;2022-09-29T09:28:24;6.75;;;0.95;;
67597;SDS011;62026;39.230;9.122;2022-09-29T09:34:19;4.40;;;0.70;;
67597;SDS011;62026;39.230;9.122;2022-09-29T09:37:00;4.20;;;0.80;;
67597;SDS011;62026;39.230;9.122;2022-09-29T09:42:13;7.45;;;1.27;;
67597;SDS011;62026;39.230;9.122;2022-09-29T09:44:59;9.48;;;0.80;;
67597;SDS011;62026;39.230;9.122;2022-09-29T09:47:39;7.35;;;0.85;;
67597;SDS011;62026;39.230;9.122;2022-09-29T09:50:16;5.10;;;0.70;;
67597;SDS011;62026;39.230;9.122;2022-09-29T09:52:54;8.25;;;1.55;;
67597;SDS011;62026;39.230;9.122;2022-09-29T09:55:46;3.95;;;0.77;;
67597;SDS011;62026;39.230;9.122;2022-09-29T09:58:54;3.90;;;0.60;;
67597;SDS011;62026;39.230;9.122;2022-09-29T10:01:33;4.95;;;0.77;;
67597;SDS011;62026;39.230;9.122;2022-09-29T10:04:00;9.25;;;1.13;;
67597;SDS011;62026;39.230;9.122;2022-09-29T10:06:27;5.65;;;1.05;;
67597;SDS011;62026;39.230;9.122;2022-09-29T10:08:54;4.80;;;1.17;;
67597;SDS011;62026;39.230;9.122;2022-09-29T10:11:22;6.40;;;1.02;;
67597;SDS011;62026;39.230;9.122;2022-09-29T10:16:56;3.97;;;0.85;;
67597;SDS011;62026;39.230;9.122;2022-09-29T10:22:20;8.90;;;1.10;;
67597;SDS011;62026;39.230;9.122;2022-09-29T10:24:47;2.78;;;0.80;;
67597;SDS011;62026;39.230;9.122;2022-09-29T10:27:19;6.25;;;0.60;;
67597;SDS011;62026;39.230;9.122;2022-09-29T10:29:52;5.78;;;0.80;;
67597;SDS011;62026;39.230;9.122;2022-09-29T10:32:33;6.85;;;0.90;;
67597;SDS011;62026;39.230;9.122;2022-09-29T10:35:24;4.17;;;0.60;;
67597;SDS011;62026;39.230;9.122;2022-09-29T10:38:00;1.90;;;0.50;;
67597;SDS011;62026;39.230;9.122;2022-09-29T10:40:52;2.50;;;0.52;;
67597;SDS011;62026;39.230;9.122;2022-09-29T10:43:38;4.80;;;0.77;;
67597;SDS011;62026;39.230;9.122;2022-09-29T10:51:40;4.60;;;0.57;;
67597;SDS011;62026;39.230;9.122;2022-09-29T10:54:18;4.43;;;0.80;;
67597;SDS011;62026;39.230;9.122;2022-09-29T10:56:49;3.10;;;0.88;;
67597;SDS011;62026;39.230;9.122;2022-09-29T10:59:17;1.63;;;0.77;;
67597;SDS011;62026;39.230;9.122;2022-09-29T11:01:47;3.35;;;0.90;;
67597;SDS011;62026;39.230;9.122;2022-09-29T11:04:23;4.50;;;1.08;;
67597;SDS011;62026;39.230;9.122;2022-09-29T11:07:07;2.80;;;0.80;;
67597;SDS011;62026;39.230;9.122;2022-09-29T11:09:38;5.32;;;1.48;;
67597;SDS011;62026;39.230;9.122;2022-09-29T11:14:57;6.68;;;1.20;;
67597;SDS011;62026;39.230;9.122;2022-09-29T11:17:30;9.38;;;0.95;;
67597;SDS011;62026;39.230;9.122;2022-09-29T11:20:03;5.65;;;0.82;;
67597;SDS011;62026;39.230;9.122;2022-09-29T11:22:50;5.75;;;0.90;;
67597;SDS011;62026;39.230;9.122;2022-09-29T11:25:43;3.05;;;0.68;;
67597;SDS011;62026;39.230;9.122;2022-09-29T11:37:34;3.20;;;0.70;;
67597;SDS011;62026;39.230;9.122;2022-09-29T11:49:25;3.20;;;0.90;;
67597;SDS011;62026;39.230;9.122;2022-09-29T11:55:37;5.63;;;1.00;;
67597;SDS011;62026;39.230;9.122;2022-09-29T11:58:44;3.58;;;0.80;;
67597;SDS011;62026;39.230;9.122;2022-09-29T12:01:42;5.55;;;0.98;;
67597;SDS011;62026;39.230;9.122;2022-09-29T12:10:16;3.10;;;0.90;;
67597;SDS011;62026;39.230;9.122;2022-09-29T12:16:18;4.55;;;0.80;;
67597;SDS011;62026;39.230;9.122;2022-09-29T12:21:33;2.13;;;0.63;;
67597;SDS011;62026;39.230;9.122;2022-09-29T12:24:15;2.85;;;0.70;;
67597;SDS011;62026;39.230;9.122;2022-09-29T12:27:05;4.78;;;0.70;;
67597;SDS011;62026;39.230;9.122;2022-09-29T12:30:20;2.83;;;0.70;;
67597;SDS011;62026;39.230;9.122;2022-09-29T12:32:55;4.53;;;0.43;;
67597;SDS011;62026;39.230;9.122;2022-09-29T12:35:46;5.65;;;0.57;;
67597;SDS011;62026;39.230;9.122;2022-09-29T12:38:43;4.63;;;0.68;;
67597;SDS011;62026;39.230;9.122;2022-09-29T12:41:22;3.03;;;0.57;;
67597;SDS011;62026;39.230;9.122;2022-09-29T12:44:05;3.72;;;0.70;;
67597;SDS011;62026;39.230;9.122;2022-09-29T12:46:53;4.95;;;0.60;;
67597;SDS011;62026;39.230;9.122;2022-09-29T12:52:39;6.18;;;0.80;;
67597;SDS011;62026;39.230;9.122;2022-09-29T12:58:29;2.78;;;0.52;;
67597;SDS011;62026;39.230;9.122;2022-09-29T13:01:22;4.13;;;0.80;;
67597;SDS011;62026;39.230;9.122;2022-09-29T13:04:12;6.35;;;0.80;;
67597;SDS011;62026;39.230;9.122;2022-09-29T13:22:11;3.63;;;0.80;;
67597;SDS011;62026;39.230;9.122;2022-09-29T13:28:23;4.25;;;0.60;;
67597;SDS011;62026;39.230;9.122;2022-09-29T13:31:13;3.72;;;0.80;;
67597;SDS011;62026;39.230;9.122;2022-09-29T13:33:45;2.22;;;0.68;;
67597;SDS011;62026;39.230;9.122;2022-09-29T13:39:01;1.50;;;0.60;;
67597;SDS011;62026;39.230;9.122;2022-09-29T13:41:46;4.38;;;1.08;;
67597;SDS011;62026;39.230;9.122;2022-09-29T13:46:42;7.40;;;1.13;;
67597;SDS011;62026;39.230;9.122;2022-09-29T14:04:54;4.13;;;0.60;;
67597;SDS011;62026;39.230;9.122;2022-09-29T14:08:05;4.10;;;0.50;;
67597;SDS011;62026;39.230;9.122;2022-09-29T14:13:02;5.60;;;0.68;;
67597;SDS011;62026;39.230;9.122;2022-09-29T14:16:00;4.22;;;0.88;;
67597;SDS011;62026;39.230;9.122;2022-09-29T14:18:35;5.55;;;0.82;;
67597;SDS011;62026;39.230;9.122;2022-09-29T14:21:09;4.10;;;0.80;;
67597;SDS011;62026;39.230;9.122;2022-09-29T14:31:42;4.70;;;0.63;;
67597;SDS011;62026;39.230;9.122;2022-09-29T14:34:16;5.63;;;0.70;;
67597;SDS011;62026;39.230;9.122;2022-09-29T14:36:46;6.20;;;0.70;;
67597;SDS011;62026;39.230;9.122;2022-09-29T14:39:17;3.03;;;0.77;;
67597;SDS011;62026;39.230;9.122;2022-09-29T14:41:46;3.20;;;0.65;;
67597;SDS011;62026;39.230;9.122;2022-09-29T15:02:28;1.95;;;0.70;;
67597;SDS011;62026;39.230;9.122;2022-09-29T15:04:59;2.60;;;0.75;;
67597;SDS011;62026;39.230;9.122;2022-09-29T15:07:54;2.75;;;0.70;;
67597;SDS011;62026;39.230;9.122;2022-09-29T15:10:23;4.15;;;0.70;;
67597;SDS011;62026;39.230;9.122;2022-09-29T15:13:13;1.52;;;0.52;;
67597;SDS011;62026;39.230;9.122;2022-09-29T15:15:54;4.57;;;0.70;;
67597;SDS011;62026;39.230;9.122;2022-09-29T15:19:03;2.28;;;0.60;;
67597;SDS011;62026;39.230;9.122;2022-09-29T15:24:57;5.10;;;0.88;;
67597;SDS011;62026;39.230;9.122;2022-09-29T15:27:54;5.25;;;0.70;;
67597;SDS011;62026;39.230;9.122;2022-09-29T15:30:30;4.45;;;0.70;;
67597;SDS011;62026;39.230;9.122;2022-09-29T15:35:45;5.82;;;0.90;;
67597;SDS011;62026;39.230;9.122;2022-09-29T15:40:54;1.60;;;0.55;;
67597;SDS011;62026;39.230;9.122;2022-09-29T15:43:26;3.95;;;0.80;;
67597;SDS011;62026;39.230;9.122;2022-09-29T15:46:19;2.22;;;0.85;;
67597;SDS011;62026;39.230;9.122;2022-09-29T15:52:03;4.20;;;0.80;;
67597;SDS011;62026;39.230;9.122;2022-09-29T15:54:37;2.28;;;0.70;;
67597;SDS011;62026;39.230;9.122;2022-09-29T16:02:48;3.55;;;0.65;;
67597;SDS011;62026;39.230;9.122;2022-09-29T16:05:28;3.53;;;0.73;;
67597;SDS011;62026;39.230;9.122;2022-09-29T16:08:04;5.38;;;0.70;;
67597;SDS011;62026;39.230;9.122;2022-09-29T16:10:46;1.65;;;0.60;;
67597;SDS011;62026;39.230;9.122;2022-09-29T16:13:29;4.07;;;0.75;;
67597;SDS011;62026;39.230;9.122;2022-09-29T16:16:02;2.92;;;0.90;;
67597;SDS011;62026;39.230;9.122;2022-09-29T16:18:38;5.80;;;1.00;;
67597;SDS011;62026;39.230;9.122;2022-09-29T16:21:11;3.58;;;0.80;;
67597;SDS011;62026;39.230;9.122;2022-09-29T16:26:34;3.50;;;0.60;;
67597;SDS011;62026;39.230;9.122;2022-09-29T16:29:04;5.57;;;0.60;;
67597;SDS011;62026;39.230;9.122;2022-09-29T16:31:35;4.93;;;0.68;;
67597;SDS011;62026;39.230;9.122;2022-09-29T16:36:50;4.93;;;0.80;;
67597;SDS011;62026;39.230;9.122;2022-09-29T16:39:24;3.75;;;0.82;;
67597;SDS011;62026;39.230;9.122;2022-09-29T16:41:58;3.90;;;0.67;;
67597;SDS011;62026;39.230;9.122;2022-09-29T16:47:17;3.92;;;0.90;;
67597;SDS011;62026;39.230;9.122;2022-09-29T16:49:57;3.45;;;0.68;;
67597;SDS011;62026;39.230;9.122;2022-09-29T16:55:23;1.98;;;0.60;;
67597;SDS011;62026;39.230;9.122;2022-09-29T16:57:53;3.03;;;0.80;;
67597;SDS011;62026;39.230;9.122;2022-09-29T17:00:20;30.35;;;4.10;;
67597;SDS011;62026;39.230;9.122;2022-09-29T17:02:53;26.23;;;3.25;;
67597;SDS011;62026;39.230;9.122;2022-09-29T17:05:24;8.30;;;1.40;;
67597;SDS011;62026;39.230;9.122;2022-09-29T17:08:01;4.43;;;1.10;;
67597;SDS011;62026;39.230;9.122;2022-09-29T17:10:30;4.50;;;0.77;;
67597;SDS011;62026;39.230;9.122;2022-09-29T17:12:56;6.57;;;1.10;;
67597;SDS011;62026;39.230;9.122;2022-09-29T17:15:22;4.10;;;0.93;;
67597;SDS011;62026;39.230;9.122;2022-09-29T17:17:50;3.40;;;0.70;;
67597;SDS011;62026;39.230;9.122;2022-09-29T17:20:18;3.72;;;0.90;;
67597;SDS011;62026;39.230;9.122;2022-09-29T17:22:53;3.28;;;0.90;;
67597;SDS011;62026;39.230;9.122;2022-09-29T17:25:21;3.92;;;0.70;;
67597;SDS011;62026;39.230;9.122;2022-09-29T17:27:47;3.05;;;1.10;;
67597;SDS011;62026;39.230;9.122;2022-09-29T17:30:32;3.60;;;1.00;;
67597;SDS011;62026;39.230;9.122;2022-09-29T17:32:59;4.43;;;0.98;;
67597;SDS011;62026;39.230;9.122;2022-09-29T17:35:32;5.93;;;0.90;;
67597;SDS011;62026;39.230;9.122;2022-09-29T17:38:03;3.80;;;0.70;;
67597;SDS011;62026;39.230;9.122;2022-09-29T17:40:54;2.45;;;0.88;;
67597;SDS011;62026;39.230;9.122;2022-09-29T17:43:26;2.85;;;0.68;;
67597;SDS011;62026;39.230;9.122;2022-09-29T17:45:55;8.48;;;1.30;;
67597;SDS011;62026;39.230;9.122;2022-09-29T17:48:23;3.53;;;0.70;;
67597;SDS011;62026;39.230;9.122;2022-09-29T17:50:51;2.70;;;0.65;;
67597;SDS011;62026;39.230;9.122;2022-09-29T17:53:21;3.80;;;0.70;;
67597;SDS011;62026;39.230;9.122;2022-09-29T17:55:50;2.45;;;0.80;;
67597;SDS011;62026;39.230;9.122;2022-09-29T17:58:20;5.50;;;0.70;;
67597;SDS011;62026;39.230;9.122;2022-09-29T18:00:48;7.05;;;0.60;;
67597;SDS011;62026;39.230;9.122;2022-09-29T18:03:17;4.43;;;0.80;;
67597;SDS011;62026;39.230;9.122;2022-09-29T18:05:46;5.03;;;1.00;;
67597;SDS011;62026;39.230;9.122;2022-09-29T18:08:25;5.60;;;0.90;;
67597;SDS011;62026;39.230;9.122;2022-09-29T18:10:54;2.65;;;0.90;;
67597;SDS011;62026;39.230;9.122;2022-09-29T18:13:23;3.28;;;0.80;;
67597;SDS011;62026;39.230;9.122;2022-09-29T18:15:57;2.50;;;0.70;;
67597;SDS011;62026;39.230;9.122;2022-09-29T18:18:25;4.85;;;0.80;;
67597;SDS011;62026;39.230;9.122;2022-09-29T18:20:51;2.75;;;0.73;;
67597;SDS011;62026;39.230;9.122;2022-09-29T18:23:18;3.80;;;0.90;;
67597;SDS011;62026;39.230;9.122;2022-09-29T18:25:47;4.30;;;0.77;;
67597;SDS011;62026;39.230;9.122;2022-09-29T18:28:16;3.17;;;0.98;;
67597;SDS011;62026;39.230;9.122;2022-09-29T18:30:44;5.00;;;1.15;;
67597;SDS011;62026;39.230;9.122;2022-09-29T18:33:18;2.92;;;1.00;;
67597;SDS011;62026;39.230;9.122;2022-09-29T18:35:49;4.03;;;1.42;;
67597;SDS011;62026;39.230;9.122;2022-09-29T18:38:21;4.00;;;1.38;;
67597;SDS011;62026;39.230;9.122;2022-09-29T18:40:47;3.35;;;1.90;;
67597;SDS011;62026;39.230;9.122;2022-09-29T18:43:18;4.38;;;1.55;;
67597;SDS011;62026;39.230;9.122;2022-09-29T18:45:49;4.00;;;1.35;;
67597;SDS011;62026;39.230;9.122;2022-09-29T18:48:16;6.28;;;1.30;;
67597;SDS011;62026;39.230;9.122;2022-09-29T18:50:44;3.03;;;1.15;;
67597;SDS011;62026;39.230;9.122;2022-09-29T18:53:13;6.45;;;1.35;;
67597;SDS011;62026;39.230;9.122;2022-09-29T18:55:42;4.30;;;1.50;;